Uriel Dos Santos

Jefe de ojeadores - Queretaro
22 Feb 2028
Martes
Continuar

Personalidad

Adaptabilidad (13) Ambición (8) Controversia (5) Lealtad (11) Presión (3) Profesionalismo (15) Deportividad (1) Temperamento (8)

Perfil

Estilo de dirección Democrático
Licencia Continental B
Determinación 4
Gestión de personas 8
Motivación 10
Disciplina 6
Satisfacción laboral
100%
Fatiga
0%
Cargo Jefe de ojeadores
Salario 21.6K p/s
Contrato 14.03.2029

Rendimiento

Comportamiento Bueno
Efectividad del entrenamiento
31%
Desarrollo de jugadores
60%
Prevención de lesiones
45%
Implementación táctica
60%

Eventos recientes

Asistió a una reunión de captación 7d atrás
Asistió a una reunión de captación 7d atrás
Asistió a una reunión de captación 14d atrás
Asistió a una reunión de captación 14d atrás
Asistió a una reunión de captación 21d atrás
Asistió a una reunión de captación 21d atrás
Evaluó a un jugador 21d atrás
Presentó un informe a la directiva 28d atrás

Actualmente siguiendo

197
Jugador Club Estado Habilidad Confianza Observado Última observación Último voto
Mateus Mide Porto Activo 103 / 109 40% 1 01.02.2028 -
Thiago Szkaluba Korona Activo 91 / 103 40% 1 01.02.2028 -
Kauã Elias Anderlecht Activo 134 / 148 40% 1 24.01.2028 -
Pablo García Racing Santander Activo 132 / 143 40% 1 24.01.2028 -
Augusto Berrondo Tristán Suárez Perdido 114 / 93 40% 1 17.01.2028 -
Alejo Cruz Juventud Perdido 109 / 127 40% 1 17.01.2028 -
Mao Hosoya Everton Negociando 134 / 135 67% 1 01.01.2028 -
Santiago Hezze Chaves Negociando 132 / 133 62% 1 01.01.2028 -
Santiago Apa All Boys Activo 94 / 120 40% 1 31.12.2027 -
Alejo Veliz Bahia Activo 137 / 147 40% 1 31.12.2027 -
Halam Loboa Tijuana Activo 108 / 119 40% 1 07.12.2027 -
Mohamed Bolivar Barranquilla Activo 78 / 79 40% 1 07.12.2027 -
Alejandro Almaraz Nueva Chicago Activo 90 / 106 40% 2 06.12.2027 -
David Damboama El-Kanemi Warriors Activo 99 / 86 40% 2 29.11.2027 -
Felipe Faúndez O'Higgins Activo 116 / 125 40% 2 29.11.2027 -
Emiliano Bértoli Patronato Activo 93 / 109 40% 2 28.11.2027 -
Fillip Jenssen Riise Stabaek Activo 85 / 110 40% 1 28.11.2027 -
Óscar Hinojosa Metropolitanos Activo 74 / 103 40% 2 27.11.2027 -
Joel Ezra Enyimba Activo 84 / 107 40% 1 27.11.2027 -
Izan Merino Málaga Activo 121 / 126 40% 2 25.11.2027 -
Dylan Gorosito Villarreal Activo 127 / 123 40% 1 25.11.2027 -
Santino Pasini Nea Salamis Activo 114 / 114 40% 1 23.11.2027 -
Bautista Reinhardt Hrvatski Dragovoljac Activo 88 / 96 40% 2 21.11.2027 -
Hosea Michael Remo Stars Activo 97 / 94 40% 3 20.11.2027 -
Tobias Moi Bodo/Glimt Activo 125 / 123 40% 1 20.11.2027 -
Lucas Camejo River Plate Activo 88 / 103 40% 2 19.11.2027 -
Giovanni Leoni Bradford City Activo 140 / 139 40% 1 19.11.2027 -
Junior Machis Atletico Venezuela Activo 94 / 79 40% 2 18.11.2027 -
Mads Bomholt Stabaek Activo 118 / 117 40% 5 18.11.2027 -
Nazareno Roselli Defensa y Justicia Activo 96 / 131 40% 2 17.11.2027 -
Daniel Gomez Valledupar Activo 74 / 107 40% 2 17.11.2027 -
Caleb Yirenkyi Coventry City Activo 150 / 148 40% 2 16.11.2027 -
Sebastián Arancibia Santiago Wanderers Activo 86 / 124 40% 2 16.11.2027 -
Celías Ingenthron Vélez Activo 98 / 136 40% 1 15.11.2027 -
Juan Camilo Córdoba Deportivo Pereira Activo 81 / 85 40% 4 14.11.2027 -
Diego Vargas San Marcos de Arica Activo 90 / 80 40% 1 14.11.2027 -
Agustín Obregón River Plate Activo 100 / 127 40% 2 13.11.2027 -
Sebastián Ramírez Jaguares Activo 94 / 110 40% 1 09.11.2027 -
Juan Morán Godoy Cruz Activo 96 / 113 40% 1 09.11.2027 -
Ayden Heaven Luton Town Activo 148 / 149 40% 1 07.11.2027 -
Matteo Pérez Vinlöf Dinamo Zagreb Activo 141 / 136 40% 1 07.11.2027 -
Tiago Gordillo San Miguel Activo 104 / 100 40% 4 05.11.2027 -
David Valencia Alianza Petrolera Activo 115 / 137 40% 2 04.11.2027 -
Marvelous Freedom Ikorodu City Activo 100 / 77 40% 2 03.11.2027 -
Mauro Carrizo Atlético Tucumán Activo 104 / 104 40% 1 28.10.2027 -
Jhon Cortez Barranquilla Activo 102 / 105 40% 2 27.10.2027 -
Godwin Oham Warri Wolves Activo 87 / 101 40% 2 25.10.2027 -
Ángel Aguayo Sol de America Activo 76 / 97 40% 2 25.10.2027 -
Ignacio Fernández Boston River Activo 103 / 104 40% 3 21.10.2027 -
Esteban de Lima Tacuarembo Activo 101 / 114 40% 6 20.10.2027 -
Héctor Fort Real Sociedad Activo 138 / 148 40% 2 17.10.2027 -
Elkin Rivero Atletico Nacional Activo 90 / 112 40% 1 17.10.2027 -
Luis Otávio Colorado Rapids Activo 102 / 129 40% 4 16.10.2027 -
Juan Diego Perdomo Depor Activo 81 / 95 40% 3 14.10.2027 -
Cristian Guzmán Universitario Popayan Activo 105 / 105 40% 1 11.10.2027 -
Ricky Atletico Venezuela Activo 87 / 89 40% 2 08.10.2027 -
Martín Jiménez Audax Italiano Activo 80 / 117 40% 1 08.10.2027 -
Issa Yusuf Shooting Stars Activo 92 / 80 40% 2 07.10.2027 -
Hervin Goyes Deportivo Pasto Activo 88 / 94 40% 2 06.10.2027 -
Santiago Espíndola River Plate Activo 100 / 103 40% 2 04.10.2027 -
Gift Udoh Ikorodu City Activo 69 / 74 40% 2 30.09.2027 -
Mpho Khethang AS Police Activo 91 / 91 40% 1 29.09.2027 -
Álvaro Navoni Tigre Activo 95 / 108 40% 1 29.09.2027 -
Germán Barbas Penarol Activo 107 / 100 40% 1 28.09.2027 -
Olaniyi Saheed Kwara United Activo 110 / 107 40% 2 26.09.2027 -
José Movillo O'Higgins Activo 90 / 101 40% 1 18.09.2027 -
Teo Rodríguez Pagano River Plate Activo 107 / 105 40% 1 18.09.2027 -
Jorge Salinas Racing Santander Activo 120 / 131 40% 2 17.09.2027 -
Aytor Herrera Zulia Activo 91 / 95 40% 1 14.09.2027 -
Archie Gray Derby County Activo 141 / 145 40% 1 10.09.2027 -
Eliás Montiel Werder Bremen Activo 139 / 133 40% 1 09.09.2027 -
Matías Canedo Rampla Juniors Activo 67 / 74 40% 1 06.09.2027 -
Urko Izeta Cádiz Activo 127 / 126 40% 1 16.08.2027 -
Uriel Antuna Zaragoza Activo 146 / 141 40% 1 16.08.2027 -
Lucas Boyé Alavés Activo 144 / 146 40% 1 12.08.2027 -
Borja Mayoral Getafe Activo 153 / 147 40% 1 12.08.2027 -
Munir Albacete Activo 130 / 126 40% 1 02.08.2027 -
Abel Ruiz Girona Activo 145 / 135 40% 1 02.08.2027 -
Adam Jakobsen Castellón Activo 129 / 119 40% 1 13.07.2027 -
Callum O'Hare Sheffield United Activo 138 / 129 40% 1 13.07.2027 -
Kelly Saravanan Salford City Activo 121 / 114 40% 1 06.07.2027 -
Ezequiel Ponce Elche Activo 132 / 126 40% 1 06.07.2027 -
Jan Bürger Gillingham Activo 106 / 116 40% 2 21.06.2027 -
Martim Cunha Porto Activo 106 / 116 40% 2 21.06.2027 -
Kevin Vazquez Cruz Azul Activo 135 / 141 40% 1 08.06.2027 -
Max Bird Birmingham Activo 128 / 124 40% 2 30.05.2027 -
George Earthy Reading Activo 114 / 126 40% 1 29.05.2027 -
Sonny Carey Charlton Athletic Activo 116 / 112 40% 2 28.05.2027 -
David Turnbull Cardiff City Activo 117 / 115 40% 1 28.05.2027 -
Ethan Galbraith Swansea City Activo 142 / 135 40% 4 27.05.2027 -
Finn Azaz Southampton Activo 124 / 122 40% 2 27.05.2027 -
Ilyas Ansah Hull City Activo 133 / 136 40% 4 26.05.2027 -
Ollie Tanner Cardiff City Activo 120 / 115 40% 5 26.05.2027 -
Richard Koné Queens Park Rangers Activo 132 / 129 40% 3 24.05.2027 -
Tyreece Campbell Charlton Athletic Activo 123 / 127 40% 2 24.05.2027 -
Ethan Williams Peterborough United Activo 117 / 118 40% 4 23.05.2027 -
Sam Bell Bristol City Activo 121 / 127 40% 2 23.05.2027 -
Daniel Kyerewaa Reading Activo 117 / 119 40% 2 22.05.2027 -
Ramiro Sordo Santos Laguna Activo 111 / 130 40% 2 21.05.2027 -
Leif Davis Ipswich Town Activo 134 / 127 40% 1 21.05.2027 -
Tyrese Campbell Sheffield United Activo 127 / 124 40% 3 20.05.2027 -
Christ Inao Oulaï Fiorentina Activo 128 / 130 40% 1 20.05.2027 -
Isaiah Jones Luton Town Activo 125 / 123 40% 5 19.05.2027 -
Cian Ashford Cardiff City Activo 122 / 112 40% 3 19.05.2027 -
Edwin Asamoah Berekum Chelsea Activo 81 / 82 40% 1 18.05.2027 -
Ronald Swansea City Activo 132 / 136 40% 2 17.05.2027 -
Welington Southampton Activo 128 / 133 40% 1 17.05.2027 -
Matías Gómez Granada Activo 117 / 117 40% 1 14.05.2027 -
Louis Leroux FC Nantes Activo 136 / 121 40% 1 14.05.2027 -
Giorgi Chakvetadze Watford Activo 127 / 125 40% 1 14.05.2027 -
Derensili Sanches Fernandes Huddersfield Town Activo 129 / 116 40% 2 13.05.2027 -
Tomáš Rigo Stoke City Activo 133 / 121 40% 1 13.05.2027 -
Williams Manyama SuperSport United Activo 120 / 128 40% 1 12.05.2027 -
Stanley Mills Oxford United Activo 120 / 126 40% 1 11.05.2027 -
Kasey McAteer Ipswich Town Activo 128 / 130 40% 3 09.05.2027 -
Nicolas Madsen Queens Park Rangers Activo 138 / 135 40% 1 09.05.2027 -
Nicolás Castro Toluca Perdido 134 / 120 40% 2 06.05.2027 -
Ali Ahmed Norwich City Activo 119 / 124 40% 2 05.05.2027 -
Scott Twine Bristol City Activo 123 / 120 40% 2 02.05.2027 -
Jack Diamond Stockport County Activo 116 / 124 40% 1 02.05.2027 -
Isaac Price West Bromwich Albion Activo 128 / 136 40% 1 01.05.2027 -
Bosun Lawal Stoke City Activo 135 / 122 40% 1 28.04.2027 -
Jack Currie Oxford United Activo 112 / 131 40% 1 28.04.2027 -
Darlin Yongwa Norwich City Activo 124 / 114 40% 2 27.04.2027 -
Ilias Akhomach Villarreal Activo 144 / 144 40% 1 27.04.2027 -
Othmane Maamma Watford Activo 127 / 132 40% 4 24.04.2027 -
Josh Tymon Swansea City Activo 120 / 118 40% 1 19.04.2027 -
Gustavo Silva Vitoria Guimaraes Activo 124 / 126 40% 1 18.04.2027 -
Diego Lainez Tigres Activo 134 / 139 40% 4 17.04.2027 -
Mduduzi Shabalala Kaizer Chiefs Activo 127 / 101 40% 1 15.04.2027 -
Leandro Martins Benfica Activo 98 / 97 40% 2 13.04.2027 -
Tshepang Moremi Orlando Pirates Activo 128 / 130 40% 1 13.04.2027 -
Tiago Freitas Benfica Activo 105 / 113 40% 1 12.04.2027 -
Jason Knight Bristol City Activo 121 / 129 40% 1 10.04.2027 -
Koki Saito Queens Park Rangers Activo 130 / 122 40% 1 06.04.2027 -
James Dornelly Peterborough United Activo 94 / 107 40% 1 06.04.2027 -
Oswin Appollis Orlando Pirates Activo 123 / 112 40% 1 02.04.2027 -
Kwadwo Baah Watford Activo 133 / 119 40% 2 01.04.2027 -
Bali Mumba Huddersfield Town Activo 122 / 111 40% 1 28.03.2027 -
Tomás González Piast Activo 130 / 121 40% 2 23.03.2027 -
Emi Rodriguez Leon Activo 123 / 122 40% 1 23.03.2027 -
Toby Collyer West Bromwich Albion Activo 122 / 132 40% 1 22.03.2027 -
Florentino Luís Ipswich Town Activo 136 / 135 40% 2 21.03.2027 -
Bamba Dieng Crvena Zvezda Activo 139 / 119 40% 1 21.03.2027 -
Sayfallah Ltaief Cracovia Activo 116 / 128 40% 1 19.03.2027 -
Christos Zafeiris Tigres Activo 135 / 153 40% 1 19.03.2027 -
Eduardo Dos Santos Veracruz Activo 128 / 123 40% 1 16.03.2027 -
Omar Campos Cruz Azul Activo 126 / 132 40% 1 16.03.2027 -
Christian Krasnodar Activo 125 / 136 40% 1 12.03.2027 -
Adriano Bertaccini Anderlecht Activo 122 / 120 40% 2 11.03.2027 -
Paris Maghoma Norwich City Activo 123 / 132 40% 1 10.03.2027 -
Duk Atlas Activo 104 / 115 40% 4 01.03.2027 -
Patrik Wålemark Lech Activo 136 / 111 40% 1 01.03.2027 -
Dion Beljo Standard Liege Perdido 131 / 132 66% 1 11.01.2027 -
Luciano Gondou CSKA Moscow Activo 114 / 138 40% 3 31.12.2026 -
Ozziel Herrera Tigres Activo 118 / 127 40% 3 29.12.2026 -
Juan Cruz Martins Jihlava Activo 117 / 91 40% 1 27.12.2026 -
Kwame Opoku Asante Kotoko Activo 106 / 102 40% 1 26.12.2026 -
Tom Cannon Sheffield United Activo 121 / 134 40% 2 24.12.2026 -
Rodrigo Soria Vorskla Activo 91 / 98 40% 1 18.12.2026 -
Themba Ngcobo SuperSport United Activo 104 / 110 40% 1 17.12.2026 -
Niall Ennis Blackpool Activo 103 / 102 40% 1 17.12.2026 -
Aune Heggebø West Bromwich Albion Activo 127 / 121 40% 3 16.12.2026 -
Lorent Tolaj Plymouth Argyle Activo 114 / 112 40% 1 16.12.2026 -
Luis Vázquez Birmingham Activo 140 / 125 40% 2 15.12.2026 -
Yago Santiago Racing Santander Activo 114 / 131 40% 1 14.12.2026 -
Rafiu Durosinmi Racing Genk Activo 137 / 129 40% 1 14.12.2026 -
Adnan Courtois KV Oostende Activo 135 / 134 40% 1 09.12.2026 -
Mauro Valiente Estudiantes Activo 118 / 115 40% 1 02.12.2026 -
Etiosa Ighodaro Kaizer Chiefs Activo 91 / 111 40% 1 02.12.2026 -
Mees Rijks Bristol Rovers Activo 114 / 114 40% 1 01.12.2026 -
Ramiro Ruiz Rodríguez Atlético Tucumán Activo 115 / 109 40% 2 30.11.2026 -
Manuel Ospina Cortulua Activo 138 / 112 40% 3 24.11.2026 -
Juan David Rueda Alianza Petrolera Activo 122 / 94 40% 1 22.11.2026 -
Nicolás Cordero Aldosivi Activo 106 / 112 40% 2 19.11.2026 -
Dara O'Shea Ipswich Town Activo 130 / 135 40% 1 18.11.2026 -
Mandla Erasmus SuperSport United Activo 97 / 127 40% 1 18.11.2026 -
Will Lankshear Middlesbrough Activo 123 / 124 40% 2 14.11.2026 -
Nicolò Tresoldi Club Brugge Activo 143 / 140 40% 2 14.11.2026 Más información
Ruben van Bommel Ferencvaros Activo 148 / 146 40% 1 11.11.2026 -
Job Ochieng Real Sociedad Activo 106 / 104 40% 1 09.11.2026 -
Ignacio Rodríguez Racing Club Activo 106 / 139 40% 1 04.11.2026 -
Bobby Thomas Coventry City Activo 133 / 137 40% 1 04.11.2026 -
Agustín Gallo Tristán Suárez Activo 99 / 114 40% 1 02.11.2026 -
Daniel Karlsbakk Sarpsborg 08 Activo 130 / 138 40% 1 01.11.2026 -
Esteban da Silva Racing Activo 127 / 131 40% 1 29.10.2026 -
Alexis Cuello San Lorenzo Activo 145 / 129 40% 2 25.10.2026 -
Bénie Traoré New York City Activo 128 / 115 40% 1 19.10.2026 -
Lassina Traoré Shakhtar Activo 141 / 131 40% 1 18.10.2026 -
Jonás Luna Santa Clara Activo 111 / 130 40% 1 15.10.2026 -
Alexander Díaz Deportivo Riestra Activo 122 / 125 40% 2 14.10.2026 -
Dejan Joveljić Seattle Sounders Activo 127 / 131 40% 1 14.10.2026 -
Rômulo Tigres Activo 117 / 109 40% 1 10.10.2026 -
Ralph Orquin Seattle Sounders Activo 129 / 132 40% 1 10.10.2026 -
Tadeo Allende Inter Miami CF Activo 115 / 113 40% 1 07.10.2026 -
Wessam Abou Ali Columbus Crew Activo 118 / 134 40% 1 05.10.2026 -
Alan Pulido Guadalajara Activo 121 / 124 48% 1 10.08.2026 -